Time;durP1;ratioP1;P1;durP2;ratioP2;P2;SDS_P1;SDS_P2;PMS_P1;PMS_P2;Temp;Humidity;BMP_temperature;BMP_pressure;BME280_temperature;BME280_humidity;BME280_pressure;Samples;Min_cycle;Max_cycle;Signal;HPM_P1;HPM_P2
2022/06/14 00:00:53;;;;;;;6.70;4.25;;;;;;;19.89;100.00;99074.13;1586134;89;21084;-77
2022/06/14 00:03:36;;;;;;;9.70;4.65;;;;;;;19.86;100.00;99069.14;1586024;89;21045;-77
2022/06/14 00:06:16;;;;;;;8.93;5.12;;;;;;;19.81;100.00;99063.04;1586045;89;21057;-77
2022/06/14 00:08:47;;;;;;;6.03;4.45;;;;;;;19.78;100.00;99051.75;1607752;89;21117;-77
2022/06/14 00:11:34;;;;;;;7.17;4.80;;;;;;;19.72;100.00;99055.80;1585941;89;21073;-76
2022/06/14 00:14:03;;;;;;;5.70;4.60;;;;;;;19.68;100.00;99058.74;1608832;87;21100;-77
2022/06/14 00:16:30;;;;;;;6.50;4.50;;;;;;;19.67;100.00;99047.50;1639250;88;21042;-77
2022/06/14 00:18:57;;;;;;;7.50;4.58;;;;;;;19.68;100.00;99037.35;1639369;88;21073;-77
2022/06/14 00:21:25;;;;;;;7.00;4.60;;;;;;;19.69;100.00;99037.10;1639176;88;21065;-77
2022/06/14 00:23:53;;;;;;;6.45;4.72;;;;;;;19.72;100.00;99026.15;1621018;88;21086;-77
2022/06/14 00:26:22;;;;;;;8.23;5.03;;;;;;;19.73;100.00;99023.19;1620702;88;21042;-76
2022/06/14 00:28:49;;;;;;;9.58;5.47;;;;;;;19.72;100.00;99026.15;1639346;88;21073;-76
2022/06/14 00:31:21;;;;;;;11.05;4.90;;;;;;;19.71;100.00;99028.62;1639272;88;21102;-77
2022/06/14 00:33:48;;;;;;;8.68;5.00;;;;;;;19.68;100.00;99030.50;1640712;88;21061;-75
2022/06/14 00:36:34;;;;;;;6.62;4.90;;;;;;;19.65;100.00;99024.14;1639810;88;21085;-76
2022/06/14 00:39:05;;;;;;;8.50;5.12;;;;;;;19.63;100.00;99023.58;1639628;88;21052;-76
2022/06/14 00:41:40;;;;;;;11.18;5.17;;;;;;;19.61;100.00;99021.63;1639497;88;21069;-76
2022/06/14 00:44:14;;;;;;;14.47;6.83;;;;;;;19.56;100.00;99013.34;1577244;91;21068;-77
2022/06/14 00:47:04;;;;;;;12.40;6.12;;;;;;;19.51;100.00;99012.20;1525534;93;21058;-77
2022/06/14 00:49:35;;;;;;;14.10;7.78;;;;;;;19.48;100.00;99002.29;1525257;94;21093;-77
2022/06/14 00:52:24;;;;;;;10.38;5.87;;;;;;;19.47;100.00;98983.62;1525279;94;21118;-77
2022/06/14 00:54:59;;;;;;;11.25;5.67;;;;;;;19.46;100.00;98968.80;1525440;94;21058;-76
2022/06/14 00:57:31;;;;;;;12.35;5.55;;;;;;;19.47;100.00;98954.02;1510380;95;21670;-77
2022/06/14 01:00:09;;;;;;;13.65;6.22;;;;;;;19.48;100.00;98950.20;1443468;97;21752;-76
2022/06/14 01:02:40;;;;;;;9.88;5.53;;;;;;;19.49;100.00;98932.11;1443309;99;21627;-77
2022/06/14 01:05:15;;;;;;;9.23;5.30;;;;;;;19.51;100.00;98925.00;1443134;99;21098;-77
2022/06/14 01:07:47;;;;;;;8.05;5.15;;;;;;;19.52;100.00;98924.74;1443172;99;21701;-76
2022/06/14 01:10:28;;;;;;;7.55;4.80;;;;;;;19.52;100.00;98915.15;1426418;99;21118;-76
2022/06/14 01:12:58;;;;;;;6.97;4.55;;;;;;;19.52;100.00;98915.15;1443102;98;21153;-76
2022/06/14 01:15:31;;;;;;;8.58;5.10;;;;;;;19.54;100.00;98924.49;1443181;98;21167;-78
2022/06/14 01:18:12;;;;;;;8.53;4.95;;;;;;;19.56;100.00;98929.72;1426298;99;21176;-77
2022/06/14 01:20:41;;;;;;;6.28;5.03;;;;;;;19.57;100.00;98925.91;1443061;98;21134;-76
2022/06/14 01:23:10;;;;;;;11.12;5.42;;;;;;;19.59;100.00;98930.59;1442916;99;21142;-77
2022/06/14 01:25:41;;;;;;;13.95;5.83;;;;;;;19.58;100.00;98933.85;1443288;99;21684;-76
2022/06/14 01:28:09;;;;;;;14.75;5.83;;;;;;;19.57;100.00;98928.65;1426990;99;21159;-76
2022/06/14 01:30:43;;;;;;;11.18;5.28;;;;;;;19.53;100.00;98934.64;1443116;99;21191;-76
2022/06/14 01:33:15;;;;;;;8.95;5.15;;;;;;;19.52;100.00;98927.48;1443052;99;21122;-77
2022/06/14 01:35:45;;;;;;;7.40;4.90;;;;;;;19.50;100.00;98926.92;1426515;99;21118;-76
2022/06/14 01:38:14;;;;;;;8.33;5.22;;;;;;;19.49;100.00;98929.91;1443206;98;21235;-77
2022/06/14 01:41:11;;;;;;;10.80;5.45;;;;;;;19.48;100.00;98929.64;1464987;96;21151;-77
2022/06/14 01:44:18;;;;;;;6.47;5.08;;;;;;;19.47;100.00;98935.65;1491464;95;21106;-77
2022/06/14 01:47:02;;;;;;;43.30;7.67;;;;;;;19.45;100.00;98939.75;1488820;96;21292;-77
2022/06/14 01:52:59;;;;;;;13.25;5.87;;;;;;;19.40;100.00;98942.42;1488802;96;21110;-77
2022/06/14 01:55:43;;;;;;;12.37;5.20;;;;;;;19.40;100.00;98935.02;1507844;95;21097;-77
2022/06/14 01:58:47;;;;;;;12.15;5.17;;;;;;;19.40;100.00;98927.34;1608023;89;21048;-76
2022/06/14 02:01:32;;;;;;;12.13;5.95;;;;;;;19.36;100.00;98929.77;1553752;92;21084;-77
2022/06/14 02:04:44;;;;;;;7.37;4.70;;;;;;;19.32;100.00;98930.01;1554019;92;21124;-77
2022/06/14 02:07:19;;;;;;;8.55;5.08;;;;;;;19.30;100.00;98928.89;1549723;92;21141;-77
2022/06/14 02:10:03;;;;;;;10.40;5.17;;;;;;;19.31;100.00;98936.56;1554125;92;21138;-77
2022/06/14 02:12:51;;;;;;;14.10;5.67;;;;;;;19.31;100.00;98939.30;1530415;92;21048;-77
2022/06/14 02:15:41;;;;;;;9.38;5.15;;;;;;;19.31;100.00;98931.08;1566791;90;21061;-76
2022/06/14 02:18:25;;;;;;;9.18;4.78;;;;;;;19.31;100.00;98926.42;1588029;90;21050;-76
2022/06/14 02:21:14;;;;;;;;;;;;;;;19.32;100.00;98932.20;1590585;90;21086;-77
2022/06/14 02:23:48;;;;;;;5.45;4.22;;;;;;;19.33;100.00;98933.02;1619183;88;20116;-77
2022/06/14 02:26:23;;;;;;;6.78;4.55;;;;;;;19.34;100.00;98941.54;1600877;88;21087;-77
2022/06/14 02:28:57;;;;;;;5.72;4.60;;;;;;;19.34;100.00;98935.50;1628594;88;21011;-77
2022/06/14 02:31:36;;;;;;;5.50;4.37;;;;;;;19.35;100.00;98939.06;1584579;89;21040;-76
2022/06/14 02:34:12;;;;;;;7.20;4.42;;;;;;;19.36;100.00;98946.22;1537141;93;21128;-77
2022/06/14 02:36:59;;;;;;;6.47;4.35;;;;;;;19.38;100.00;98941.85;1496219;96;21085;-76
2022/06/14 02:39:39;;;;;;;7.58;4.62;;;;;;;19.38;100.00;98941.30;1507712;95;21606;-76
2022/06/14 02:42:27;;;;;;;8.98;4.40;;;;;;;19.40;100.00;98944.61;1507768;95;21158;-76
2022/06/14 02:44:59;;;;;;;7.40;4.65;;;;;;;19.44;100.00;98944.41;1507536;95;21615;-76
2022/06/14 02:47:44;;;;;;;6.45;4.40;;;;;;;19.47;100.00;98940.31;1461363;98;21115;-77
2022/06/14 02:50:22;;;;;;;11.45;5.15;;;;;;;19.48;100.00;98942.80;1464328;98;21153;-77
2022/06/14 02:52:57;;;;;;;12.60;4.83;;;;;;;19.50;100.00;98945.30;1443889;99;21137;-77
2022/06/14 02:55:43;;;;;;;11.38;4.80;;;;;;;19.52;100.00;98950.79;1454869;98;21601;-78
2022/06/14 02:58:27;;;;;;;10.55;4.58;;;;;;;19.54;100.00;98954.09;1386509;104;21266;-77
2022/06/14 03:01:00;;;;;;;9.10;4.37;;;;;;;19.57;100.00;98958.26;1371306;104;21251;-76
2022/06/14 03:03:38;;;;;;;7.87;4.57;;;;;;;19.60;100.00;98959.13;1387021;104;21108;-79
2022/06/14 03:06:34;;;;;;;5.55;4.58;;;;;;;19.63;100.00;98968.73;1332165;108;21197;-78
2022/06/14 03:09:11;;;;;;;7.60;4.22;;;;;;;19.66;100.00;98975.09;1332369;108;21627;-77
2022/06/14 03:12:02;;;;;;;6.78;4.20;;;;;;;19.70;100.00;98984.45;1311403;106;21188;-78
2022/06/14 03:14:42;;;;;;;5.10;4.10;;;;;;;19.73;100.00;98991.65;1307049;110;21249;-78
2022/06/14 03:17:17;;;;;;;6.12;3.72;;;;;;;19.80;100.00;98996.94;1298995;110;21666;-78
2022/06/14 03:20:11;;;;;;;4.78;3.90;;;;;;;19.84;100.00;99009.05;1301799;110;21223;-76
2022/06/14 03:23:10;;;;;;;6.37;4.28;;;;;;;19.91;100.00;99030.80;1250457;113;21337;-78
2022/06/14 03:26:14;;;;;;;5.50;4.00;;;;;;;19.98;100.00;99046.52;1248912;114;21200;-78
2022/06/14 03:29:02;;;;;;;4.45;3.87;;;;;;;20.06;100.00;99061.16;1248665;115;21267;-77
2022/06/14 03:31:46;;;;;;;5.33;3.60;;;;;;;20.16;100.00;99082.94;1285575;111;21166;-78
2022/06/14 03:34:36;;;;;;;6.72;4.00;;;;;;;20.23;100.00;99084.38;1291337;111;21174;-78
2022/06/14 03:37:03;;;;;;;8.48;4.33;;;;;;;20.33;100.00;99093.81;1291295;111;21192;-78
2022/06/14 03:39:42;;;;;;;10.00;4.20;;;;;;;20.39;100.00;99111.45;1304697;107;21262;-77
2022/06/14 03:42:11;;;;;;;7.92;4.15;;;;;;;20.47;100.00;99117.05;1358308;106;21187;-77
2022/06/14 03:44:40;;;;;;;9.58;6.17;;;;;;;20.54;100.00;99131.40;1366067;104;21213;-78
2022/06/14 03:47:23;;;;;;;11.25;5.37;;;;;;;20.59;100.00;99139.69;1366516;105;21586;-77
2022/06/14 03:49:58;;;;;;;10.53;4.45;;;;;;;20.65;100.00;99138.67;1346170;105;21156;-78
2022/06/14 03:53:03;;;;;;;9.93;4.35;;;;;;;20.73;100.00;99146.16;1386101;104;21595;-77
2022/06/14 03:55:56;;;;;;;6.45;3.90;;;;;;;20.78;100.00;99153.90;1422051;100;21124;-77
2022/06/14 03:59:01;;;;;;;5.45;4.05;;;;;;;20.84;100.00;99150.13;1422499;101;21124;-77
2022/06/14 04:01:38;;;;;;;8.03;4.20;;;;;;;20.93;100.00;99152.38;1392874;103;21184;-78
2022/06/14 04:04:14;;;;;;;7.30;4.12;;;;;;;21.02;100.00;99153.03;1387508;103;21180;-77
2022/06/14 04:06:51;;;;;;;6.83;4.05;;;;;;;21.12;100.00;99156.40;1387587;104;21147;-77
2022/06/14 04:09:46;;;;;;;5.72;4.00;;;;;;;21.24;100.00;99154.86;1436291;99;21134;-78
2022/06/14 04:12:32;;;;;;;12.40;4.03;;;;;;;21.39;100.00;99161.03;1403431;102;21157;-78
2022/06/14 04:15:09;;;;;;;11.57;4.30;;;;;;;21.55;100.00;99173.83;1407745;102;21131;-77
2022/06/14 04:18:36;;;;;;;16.70;4.30;;;;;;;21.69;100.00;99183.83;1407929;102;21131;-78
2022/06/14 04:21:17;;;;;;;13.95;4.90;;;;;;;21.85;100.00;99188.03;1426822;98;21192;-78
2022/06/14 04:24:14;;;;;;;9.53;4.60;;;;;;;22.07;100.00;99202.47;1430992;99;21153;-77
2022/06/14 04:27:05;;;;;;;13.60;4.80;;;;;;;22.31;100.00;99211.16;1435956;99;21169;-78
2022/06/14 04:29:40;;;;;;;14.25;4.87;;;;;;;22.64;100.00;99222.02;1453985;99;21177;-78
2022/06/14 04:32:17;;;;;;;21.20;5.05;;;;;;;22.96;100.00;99227.89;1429527;99;21203;-77
2022/06/14 04:34:54;;;;;;;7.45;4.17;;;;;;;23.25;100.00;99235.16;1454087;97;21613;-77
2022/06/14 04:37:26;;;;;;;10.48;4.60;;;;;;;23.48;100.00;99248.95;1414065;101;21134;-78
2022/06/14 04:40:02;;;;;;;;;;;;;;;23.66;100.00;99244.80;1456054;99;21144;-78
2022/06/14 04:42:39;;;;;;;5.50;3.83;;;;;;;23.87;100.00;99253.93;1451580;98;20129;-77
2022/06/14 04:45:20;;;;;;;11.70;4.10;;;;;;;24.07;100.00;99267.68;1455417;98;21171;-77
2022/06/14 04:48:07;;;;;;;10.75;4.00;;;;;;;24.21;100.00;99283.13;1475407;93;21127;-79
2022/06/14 04:51:03;;;;;;;13.53;4.40;;;;;;;24.37;100.00;99290.82;1492191;95;21617;-77
2022/06/14 04:53:53;;;;;;;13.98;4.85;;;;;;;24.56;100.00;99295.22;1455369;99;21108;-79
2022/06/14 04:56:27;;;;;;;6.97;3.85;;;;;;;24.72;100.00;99311.19;1444595;98;21193;-78
2022/06/14 04:59:09;;;;;;;6.78;4.00;;;;;;;24.89;100.00;99312.77;1441502;98;21217;-78
2022/06/14 05:01:53;;;;;;;8.13;4.40;;;;;;;25.05;100.00;99316.29;1416881;101;21120;-78
2022/06/14 05:04:29;;;;;;;8.73;5.33;;;;;;;25.19;100.00;99316.75;1417272;101;21099;-78
2022/06/14 05:07:13;;;;;;;10.15;4.80;;;;;;;25.38;100.00;99320.28;1414682;101;21128;-77
2022/06/14 05:09:51;;;;;;;22.48;13.55;;;;;;;25.59;100.00;99332.05;1453869;98;21097;-75
2022/06/14 05:12:46;;;;;;;8.93;5.05;;;;;;;25.84;100.00;99328.81;1462334;98;21133;-76
2022/06/14 05:15:49;;;;;;;10.75;4.65;;;;;;;26.05;100.00;99341.95;1441610;99;21177;-77
2022/06/14 05:18:47;;;;;;;12.73;5.22;;;;;;;26.20;100.00;99347.91;1452733;99;21156;-80
2022/06/14 05:21:36;;;;;;;10.95;4.70;;;;;;;26.36;100.00;99352.73;1450583;99;21075;-68
2022/06/14 05:24:05;;;;;;;13.83;7.50;;;;;;;26.55;100.00;99344.51;1455889;98;21088;-69
2022/06/14 05:27:13;;;;;;;18.40;6.40;;;;;;;26.78;100.00;99347.87;1455875;99;21251;-69
2022/06/14 05:30:09;;;;;;;21.23;13.55;;;;;;;26.97;100.00;99359.02;1455119;99;21210;-69
2022/06/14 05:32:56;;;;;;;9.25;5.22;;;;;;;27.19;100.00;99373.70;1455976;99;21170;-69
2022/06/14 05:35:59;;;;;;;45.55;35.98;;;;;;;27.38;100.00;99382.09;1464364;98;21120;-68
2022/06/14 05:38:48;;;;;;;10.85;6.05;;;;;;;27.56;100.00;99392.94;1462941;98;21583;-70
2022/06/14 05:41:42;;;;;;;9.05;4.58;;;;;;;27.73;100.00;99413.79;1461283;98;21175;-67
2022/06/14 05:44:26;;;;;;;8.18;3.98;;;;;;;27.78;100.00;99410.94;1459237;98;21109;-68
2022/06/14 05:46:55;;;;;;;11.68;4.37;;;;;;;27.96;100.00;99407.91;1414325;100;21208;-68
2022/06/14 05:49:31;;;;;;;12.88;4.50;;;;;;;28.19;100.00;99414.52;1406576;101;21088;-68
2022/06/14 05:52:10;;;;;;;10.38;4.30;;;;;;;28.41;100.00;99415.23;1455573;99;21642;-69
2022/06/14 05:54:52;;;;;;;9.35;4.28;;;;;;;28.63;100.00;99415.97;1455529;99;21145;-69
2022/06/14 05:57:38;;;;;;;9.90;3.90;;;;;;;28.78;100.00;99417.08;1372247;103;21110;-69
2022/06/14 06:00:34;;;;;;;6.58;3.90;;;;;;;28.93;100.00;99425.71;1397493;103;21181;-69
2022/06/14 06:03:13;;;;;;;11.10;5.03;;;;;;;29.02;100.00;99425.82;1395950;103;21266;-68
2022/06/14 06:06:14;;;;;;;10.98;4.72;;;;;;;29.09;100.00;99430.41;1397581;103;21610;-69
2022/06/14 06:08:56;;;;;;;16.35;5.37;;;;;;;29.20;100.00;99446.91;1403178;101;21146;-70
2022/06/14 06:11:35;;;;;;;12.03;5.05;;;;;;;29.34;100.00;99443.00;1404007;102;21192;-68
2022/06/14 06:14:12;;;;;;;15.58;5.20;;;;;;;29.47;100.00;99446.08;1364916;105;21718;-66
2022/06/14 06:17:01;;;;;;;9.33;4.62;;;;;;;29.55;100.00;99443.93;1362446;105;21191;-69
2022/06/14 06:19:48;;;;;;;12.95;4.60;;;;;;;29.59;100.00;99433.84;1362861;104;21190;-71
2022/06/14 06:22:22;;;;;;;6.70;4.30;;;;;;;29.72;100.00;99443.29;1370255;102;21135;-69
2022/06/14 06:25:03;;;;;;;6.30;4.37;;;;;;;29.94;100.00;99436.13;1347436;106;21692;-70
2022/06/14 06:27:47;;;;;;;8.00;4.35;;;;;;;30.00;100.00;99443.25;1340993;107;21189;-69
2022/06/14 06:30:25;;;;;;;6.75;4.58;;;;;;;29.86;100.00;99436.33;1333450;107;21251;-68
2022/06/14 06:32:52;;;;;;;5.87;4.28;;;;;;;29.81;100.00;99428.89;1311698;109;21156;-69
2022/06/14 06:35:20;;;;;;;9.38;4.75;;;;;;;29.77;100.00;99438.22;1424215;99;21148;-71
2022/06/14 06:38:11;;;;;;;7.70;4.60;;;;;;;29.74;100.00;99441.02;1445531;99;21132;-69
2022/06/14 06:41:49;;;;;;;8.00;4.35;;;;;;;29.73;100.00;99428.23;1453509;97;21700;-69
2022/06/14 06:43:11;;;;;;;9.15;4.60;;;;;;;29.70;100.00;99438.61;1443917;99;21651;-69
2022/06/14 06:45:41;;;;;;;7.72;4.60;;;;;;;29.87;100.00;99435.16;1468353;96;21113;-70
2022/06/14 06:48:32;;;;;;;7.55;4.42;;;;;;;30.08;100.00;99439.69;1438189;99;21121;-70
2022/06/14 06:51:02;;;;;;;9.88;4.55;;;;;;;30.19;100.00;99432.74;1437376;100;21097;-69
2022/06/14 06:53:40;;;;;;;18.02;5.40;;;;;;;30.25;100.00;99441.22;1454797;97;21439;-76
2022/06/14 06:56:18;;;;;;;11.03;4.95;;;;;;;30.43;100.00;99437.19;1480454;97;21613;-75
2022/06/14 06:58:54;;;;;;;8.90;4.78;;;;;;;30.54;100.00;99449.72;1426878;100;21127;-77
2022/06/14 07:01:30;;;;;;;12.33;5.22;;;;;;;30.61;100.00;99449.27;1478078;96;21189;-75
2022/06/14 07:07:32;;;;;;;9.68;5.78;;;;;;;30.87;100.00;99448.59;1488441;95;21127;-76
2022/06/14 07:10:08;;;;;;;9.85;5.40;;;;;;;31.25;100.00;99450.32;1497622;94;21102;-75
2022/06/14 07:12:48;;;;;;;9.25;4.90;;;;;;;31.40;100.00;99449.06;1480659;97;21112;-74
2022/06/14 07:15:26;;;;;;;12.80;4.95;;;;;;;31.36;100.00;99443.30;1481798;96;21093;-74
2022/06/14 07:18:04;;;;;;;11.48;4.42;;;;;;;31.62;100.00;99448.14;1479133;96;21097;-77
2022/06/14 07:20:55;;;;;;;14.68;4.78;;;;;;;31.87;100.00;99449.90;1481841;96;21146;-75
2022/06/14 07:23:59;;;;;;;6.80;4.37;;;;;;;31.90;100.00;99447.85;1470347;96;21125;-73
2022/06/14 07:26:40;;;;;;;7.20;4.55;;;;;;;31.80;100.00;99448.98;1487079;96;21173;-73
2022/06/14 07:29:16;;;;;;;10.63;4.67;;;;;;;31.99;100.00;99462.65;1486063;96;21187;-72
2022/06/14 07:31:56;;;;;;;13.58;4.90;;;;;;;32.07;100.00;99448.47;1501802;96;21071;-73
2022/06/14 07:34:22;;;;;;;13.53;4.47;;;;;;;32.18;100.00;99450.36;1474467;97;21674;-73
2022/06/14 07:37:19;;;;;;;8.10;4.42;;;;;;;32.29;100.00;99457.24;1450107;99;21121;-74
2022/06/14 07:40:08;;;;;;;8.95;4.30;;;;;;;32.35;100.00;99457.30;1450157;99;21249;-74
2022/06/14 07:42:57;;;;;;;8.63;4.33;;;;;;;32.52;99.90;99459.27;1449695;99;21603;-73
2022/06/14 07:45:31;;;;;;;27.80;5.55;;;;;;;32.67;100.00;99462.98;1432284;99;21596;-73
2022/06/14 07:48:37;;;;;;;6.72;4.50;;;;;;;32.86;100.00;99458.95;1487384;96;21237;-73
2022/06/14 07:51:12;;;;;;;11.65;4.40;;;;;;;33.01;94.01;99454.80;1510921;95;21118;-73
2022/06/14 07:53:43;;;;;;;8.53;4.00;;;;;;;33.18;92.63;99453.33;1468196;98;21057;-73
2022/06/14 07:56:15;;;;;;;12.78;4.45;;;;;;;33.25;86.71;99456.45;1486054;96;21634;-74
2022/06/14 07:58:54;;;;;;;5.80;3.98;;;;;;;33.03;83.14;99456.68;1469974;98;21154;-73
2022/06/14 08:01:29;;;;;;;10.90;4.10;;;;;;;32.91;86.46;99459.59;1503348;95;21105;-73
2022/06/14 08:04:27;;;;;;;6.00;4.10;;;;;;;32.87;88.29;99456.41;1468070;98;21158;-74
2022/06/14 08:07:07;;;;;;;10.70;4.45;;;;;;;32.94;91.09;99448.31;1502569;95;21173;-73
2022/06/14 08:09:58;;;;;;;7.50;3.70;;;;;;;33.37;88.94;99447.30;1468967;98;21172;-74
2022/06/14 08:12:39;;;;;;;5.75;3.62;;;;;;;33.78;78.50;99445.73;1500184;93;21060;-73
2022/06/14 08:15:28;;;;;;;6.78;4.25;;;;;;;33.90;77.87;99445.00;1544806;92;21709;-75
2022/06/14 08:18:13;;;;;;;20.72;10.63;;;;;;;34.01;76.31;99446.21;1491502;96;21238;-74
2022/06/14 08:20:56;;;;;;;8.18;4.08;;;;;;;34.18;81.78;99441.64;1470550;97;21113;-74
2022/06/14 08:23:48;;;;;;;12.05;5.03;;;;;;;34.33;74.89;99433.98;1463718;98;21120;-76
2022/06/14 08:26:29;;;;;;;7.25;3.87;;;;;;;34.47;75.44;99427.27;1471883;97;21107;-77
2022/06/14 08:29:25;;;;;;;7.08;3.92;;;;;;;34.63;74.55;99425.42;1422623;99;21139;-77
2022/06/14 08:32:19;;;;;;;11.38;4.70;;;;;;;34.73;69.85;99419.99;1463423;98;21103;-76
2022/06/14 08:35:28;;;;;;;5.42;4.17;;;;;;;34.72;70.19;99424.77;1463237;97;21699;-78
2022/06/14 08:38:01;;;;;;;4.28;3.60;;;;;;;34.83;68.22;99414.49;1463076;97;21185;-75
2022/06/14 08:41:07;;;;;;;8.35;3.90;;;;;;;35.12;66.27;99410.06;1463128;98;21252;-76
2022/06/14 08:43:43;;;;;;;4.42;3.60;;;;;;;35.32;68.16;99404.70;1463585;98;21115;-73
2022/06/14 08:46:18;;;;;;;4.67;3.80;;;;;;;35.49;61.31;99393.20;1453161;99;21131;-74
2022/06/14 08:49:12;;;;;;;5.97;3.67;;;;;;;35.66;63.02;99383.68;1453904;97;21677;-74
2022/06/14 08:52:35;;;;;;;6.47;3.80;;;;;;;35.89;55.23;99385.95;1453675;97;21128;-74
2022/06/14 08:55:46;;;;;;;6.05;3.70;;;;;;;35.90;53.24;99389.82;1437536;100;21141;-73
2022/06/14 08:58:31;;;;;;;7.62;4.37;;;;;;;35.90;52.12;99384.20;1466295;98;21106;-77
2022/06/14 09:01:10;;;;;;;12.33;4.35;;;;;;;35.65;52.44;99389.06;1464936;98;21696;-73
2022/06/14 09:04:14;;;;;;;5.05;3.70;;;;;;;35.77;55.27;99387.41;1462920;98;21120;-76
2022/06/14 09:07:17;;;;;;;7.00;3.90;;;;;;;35.86;53.41;99386.09;1463447;97;21644;-73
2022/06/14 09:09:55;;;;;;;6.72;3.70;;;;;;;35.99;53.92;99384.05;1470801;97;21165;-73
2022/06/14 09:13:04;;;;;;;6.53;4.20;;;;;;;35.95;48.00;99384.54;1468643;97;21138;-72
2022/06/14 09:15:52;;;;;;;48.92;7.50;;;;;;;35.71;49.48;99386.84;1466168;97;21197;-74
2022/06/14 09:18:36;;;;;;;8.73;4.00;;;;;;;35.85;50.78;99378.83;1462873;98;21655;-75
2022/06/14 09:21:30;;;;;;;8.25;4.60;;;;;;;35.65;51.29;99375.59;1486627;95;21102;-74
2022/06/14 09:24:30;;;;;;;5.53;3.83;;;;;;;35.21;51.71;99386.69;1540892;92;21093;-77
2022/06/14 09:27:11;;;;;;;25.55;19.92;;;;;;;35.06;55.83;99385.36;1564028;92;21077;-70
2022/06/14 09:30:04;;;;;;;10.18;6.30;;;;;;;35.24;55.97;99397.20;1610501;88;21121;-70
2022/06/14 09:33:13;;;;;;;8.90;5.00;;;;;;;35.41;54.59;99389.92;1608693;88;21081;-73
2022/06/14 09:36:30;;;;;;;145.53;13.98;;;;;;;35.40;54.41;99398.70;1637597;88;21101;-71
2022/06/14 09:39:08;;;;;;;19.52;4.85;;;;;;;34.89;50.17;99427.96;1636981;87;21065;-74
2022/06/14 09:42:12;;;;;;;50.50;6.83;;;;;;;33.59;50.87;99425.17;1637770;88;21125;-77
2022/06/14 09:45:21;;;;;;;11.18;4.70;;;;;;;32.59;59.22;99423.78;1661854;85;21159;-74
2022/06/14 09:48:11;;;;;;;9.68;4.20;;;;;;;31.68;70.89;99439.87;1599898;89;21585;-71
2022/06/14 09:51:08;;;;;;;16.02;4.70;;;;;;;30.94;77.34;99452.59;1596729;89;21652;-74
2022/06/14 09:54:23;;;;;;;20.02;4.70;;;;;;;30.27;72.20;99440.33;1581862;90;21144;-71
2022/06/14 09:57:37;;;;;;;125.67;32.38;;;;;;;29.78;79.32;99449.59;1574175;91;21084;-70
2022/06/14 10:00:24;;;;;;;39.45;16.40;;;;;;;29.16;100.00;99446.70;1544845;93;21140;-70
2022/06/14 10:03:23;;;;;;;16.17;6.70;;;;;;;28.47;100.00;99420.95;1548022;93;21061;-70
2022/06/14 10:06:21;;;;;;;10.53;4.95;;;;;;;27.86;100.00;99399.73;1545214;93;21074;-70
2022/06/14 10:09:36;;;;;;;9.10;5.00;;;;;;;27.43;100.00;99378.42;1547837;93;21165;-71
2022/06/14 10:12:18;;;;;;;10.50;5.72;;;;;;;27.17;100.00;99368.20;1544595;93;21123;-70
2022/06/14 10:14:53;;;;;;;6.28;4.58;;;;;;;27.04;100.00;99371.14;1553039;91;21075;-71
2022/06/14 10:17:28;;;;;;;7.55;4.30;;;;;;;27.09;100.00;99371.05;1571564;90;21069;-72
2022/06/14 10:20:13;;;;;;;5.22;3.87;;;;;;;27.22;100.00;99363.97;1595668;89;21620;-71
2022/06/14 10:23:06;;;;;;;8.43;4.37;;;;;;;27.38;100.00;99377.11;1591961;90;21059;-71
2022/06/14 10:29:27;;;;;;;5.40;3.80;;;;;;;27.70;100.00;99399.14;1563737;91;21123;-70
2022/06/14 10:32:35;;;;;;;5.25;3.87;;;;;;;27.83;100.00;99399.76;1594538;90;21610;-72
2022/06/14 10:35:30;;;;;;;4.83;3.90;;;;;;;27.89;100.00;99409.67;1563143;91;21082;-71
2022/06/14 10:38:42;;;;;;;6.55;3.60;;;;;;;27.96;100.00;99400.42;1596761;90;21568;-70
2022/06/14 10:41:22;;;;;;;5.37;3.62;;;;;;;28.09;100.00;99402.17;1596938;90;21067;-71
2022/06/14 10:44:09;;;;;;;8.33;4.95;;;;;;;28.26;100.00;99400.20;1666046;86;21095;-70
2022/06/14 10:46:47;;;;;;;5.62;4.08;;;;;;;28.32;100.00;99405.95;1601754;89;21648;-70
2022/06/14 10:49:32;;;;;;;5.15;3.45;;;;;;;28.29;100.00;99405.16;1560998;92;21093;-70
2022/06/14 10:52:19;;;;;;;4.95;3.50;;;;;;;28.34;100.00;99402.30;1561019;92;21144;-70
2022/06/14 10:55:11;;;;;;;5.25;3.70;;;;;;;28.34;100.00;99401.72;1560656;92;21097;-71
2022/06/14 10:58:09;;;;;;;4.60;3.40;;;;;;;28.38;100.00;99394.98;1561124;92;21652;-70
2022/06/14 11:01:24;;;;;;;4.08;3.52;;;;;;;28.43;100.00;99394.90;1560738;92;21177;-70
2022/06/14 11:04:29;;;;;;;8.58;3.95;;;;;;;28.53;100.00;99394.72;1561060;92;21582;-71
2022/06/14 11:07:35;;;;;;;5.47;3.87;;;;;;;28.72;100.00;99381.31;1560273;92;21145;-69
2022/06/14 11:10:42;;;;;;;5.35;3.70;;;;;;;29.17;100.00;99373.78;1560306;91;21172;-71
2022/06/14 11:13:37;;;;;;;6.75;4.10;;;;;;;29.58;100.00;99377.05;1559688;92;21066;-70
2022/06/14 11:16:32;;;;;;;7.22;3.80;;;;;;;29.87;100.00;99371.08;1558981;92;21124;-73
2022/06/14 11:19:41;;;;;;;8.80;4.00;;;;;;;29.99;100.00;99367.16;1526878;92;21131;-72
2022/06/14 11:22:35;;;;;;;5.95;3.90;;;;;;;29.91;100.00;99375.72;1550401;92;21099;-70
2022/06/14 11:25:34;;;;;;;4.40;3.83;;;;;;;29.83;100.00;99372.28;1598984;89;21087;-71
2022/06/14 11:28:29;;;;;;;16.15;4.03;;;;;;;29.72;100.00;99364.71;1604246;88;21105;-70
2022/06/14 11:31:25;;;;;;;5.20;3.92;;;;;;;29.59;100.00;99357.23;1605176;89;21062;-71
2022/06/14 11:34:09;;;;;;;14.78;8.18;;;;;;;29.55;100.00;99354.81;1602217;89;21050;-71
2022/06/14 11:37:05;;;;;;;7.87;5.75;;;;;;;29.55;100.00;99352.02;1605739;88;21017;-72
2022/06/14 11:39:45;;;;;;;4.47;3.90;;;;;;;29.69;100.00;99349.20;1605715;89;21049;-70
2022/06/14 11:42:35;;;;;;;5.45;3.33;;;;;;;29.81;94.40;99352.27;1605652;89;21049;-71
2022/06/14 11:45:26;;;;;;;4.15;3.67;;;;;;;29.87;95.02;99350.18;1550917;92;21032;-72
2022/06/14 11:48:31;;;;;;;4.05;3.40;;;;;;;30.01;100.00;99338.39;1529438;93;21075;-73
2022/06/14 11:51:37;;;;;;;6.10;3.70;;;;;;;30.45;93.29;99333.09;1529624;94;21122;-72
2022/06/14 11:54:25;;;;;;;5.55;3.40;;;;;;;30.91;83.05;99331.79;1529547;94;21063;-71
2022/06/14 11:57:00;;;;;;;6.67;3.40;;;;;;;31.36;91.42;99338.57;1529563;94;21139;-72
2022/06/14 11:59:42;;;;;;;3.25;2.90;;;;;;;31.78;91.93;99333.35;1528724;92;21139;-72
2022/06/14 12:02:30;;;;;;;4.30;3.55;;;;;;;32.18;84.32;99339.31;1527703;94;21175;-74
2022/06/14 12:05:20;;;;;;;3.83;3.42;;;;;;;32.73;86.73;99339.88;1529644;94;21064;-72
2022/06/14 12:08:25;;;;;;;6.30;3.30;;;;;;;33.22;82.92;99333.88;1529781;94;21084;-73
2022/06/14 12:11:22;;;;;;;7.67;3.50;;;;;;;33.63;76.55;99325.81;1555018;91;21025;-73
2022/06/14 12:14:03;;;;;;;4.17;3.42;;;;;;;33.94;70.52;99329.58;1519718;94;21129;-73
2022/06/14 12:16:39;;;;;;;3.70;3.40;;;;;;;33.97;55.41;99326.09;1496132;96;21231;-73
2022/06/14 12:19:27;;;;;;;4.40;3.20;;;;;;;33.85;54.23;99323.23;1483365;95;21324;-73
2022/06/14 12:22:28;;;;;;;5.33;3.22;;;;;;;33.84;52.82;99323.83;1464394;97;21159;-73
2022/06/14 12:27:47;;;;;;;5.80;2.87;;;;;;;33.83;56.46;99319.97;1458377;98;21616;-73
2022/06/14 12:30:16;;;;;;;12.53;6.42;;;;;;;33.78;53.54;99317.38;1449868;97;21205;-74
2022/06/14 12:33:06;;;;;;;6.78;5.00;;;;;;;33.77;54.75;99317.16;1458567;98;21127;-72
2022/06/14 12:35:41;;;;;;;5.83;3.85;;;;;;;33.89;55.28;99314.36;1458206;98;21149;-74
2022/06/14 12:38:16;;;;;;;3.65;3.08;;;;;;;34.23;55.29;99309.61;1475096;97;21061;-75
2022/06/14 12:41:09;;;;;;;7.25;4.00;;;;;;;34.46;54.30;99304.38;1459663;95;21574;-75
2022/06/14 12:44:05;;;;;;;7.33;3.52;;;;;;;34.59;52.97;99309.41;1434750;100;21159;-75
2022/06/14 12:46:35;;;;;;;4.17;3.40;;;;;;;34.68;53.23;99304.48;1435527;99;21211;-73
2022/06/14 12:49:23;;;;;;;10.18;5.78;;;;;;;34.88;53.03;99302.75;1451708;97;21692;-74
2022/06/14 12:52:04;;;;;;;8.43;4.40;;;;;;;34.99;50.28;99305.92;1434693;99;21230;-74
2022/06/14 12:54:54;;;;;;;7.85;3.55;;;;;;;35.08;50.40;99302.39;1404303;101;21199;-75
2022/06/14 12:57:54;;;;;;;9.55;3.33;;;;;;;35.13;48.38;99304.96;1400532;101;21136;-74
2022/06/14 13:00:42;;;;;;;3.30;3.00;;;;;;;35.02;47.40;99300.17;1392583;103;21110;-74